sensor_id;sensor_type;location;lat;lon;timestamp;P1;durP1;ratioP1;P2;durP2;ratioP2
47519;SDS011;33252;48.122;11.538;2023-03-31T00:02:19;10.00;;;5.10;;
47519;SDS011;33252;48.122;11.538;2023-03-31T00:04:46;5.65;;;4.53;;
47519;SDS011;33252;48.122;11.538;2023-03-31T00:07:16;9.65;;;5.15;;
47519;SDS011;33252;48.122;11.538;2023-03-31T00:09:46;8.18;;;5.15;;
47519;SDS011;33252;48.122;11.538;2023-03-31T00:12:13;9.30;;;4.82;;
47519;SDS011;33252;48.122;11.538;2023-03-31T00:14:40;7.40;;;4.00;;
47519;SDS011;33252;48.122;11.538;2023-03-31T00:17:07;11.20;;;5.53;;
47519;SDS011;33252;48.122;11.538;2023-03-31T00:19:34;7.88;;;5.25;;
47519;SDS011;33252;48.122;11.538;2023-03-31T00:22:00;8.23;;;5.20;;
47519;SDS011;33252;48.122;11.538;2023-03-31T00:24:26;8.80;;;5.15;;
47519;SDS011;33252;48.122;11.538;2023-03-31T00:26:56;6.68;;;5.35;;
47519;SDS011;33252;48.122;11.538;2023-03-31T00:29:26;9.20;;;5.10;;
47519;SDS011;33252;48.122;11.538;2023-03-31T00:31:52;11.23;;;6.03;;
47519;SDS011;33252;48.122;11.538;2023-03-31T00:34:19;9.85;;;5.20;;
47519;SDS011;33252;48.122;11.538;2023-03-31T00:36:45;9.85;;;5.00;;
47519;SDS011;33252;48.122;11.538;2023-03-31T00:39:14;7.30;;;4.57;;
47519;SDS011;33252;48.122;11.538;2023-03-31T00:41:42;7.22;;;4.90;;
47519;SDS011;33252;48.122;11.538;2023-03-31T00:44:16;9.43;;;5.03;;
47519;SDS011;33252;48.122;11.538;2023-03-31T00:49:24;9.93;;;5.65;;
47519;SDS011;33252;48.122;11.538;2023-03-31T00:52:18;10.77;;;5.82;;
47519;SDS011;33252;48.122;11.538;2023-03-31T00:54:58;11.10;;;5.70;;
47519;SDS011;33252;48.122;11.538;2023-03-31T00:57:29;14.18;;;5.82;;
47519;SDS011;33252;48.122;11.538;2023-03-31T01:00:02;9.00;;;5.82;;
47519;SDS011;33252;48.122;11.538;2023-03-31T01:02:44;9.77;;;5.57;;
47519;SDS011;33252;48.122;11.538;2023-03-31T01:08:09;10.23;;;4.95;;
47519;SDS011;33252;48.122;11.538;2023-03-31T01:10:39;10.10;;;5.85;;
47519;SDS011;33252;48.122;11.538;2023-03-31T01:13:10;10.98;;;5.90;;
47519;SDS011;33252;48.122;11.538;2023-03-31T01:15:38;11.68;;;6.18;;
47519;SDS011;33252;48.122;11.538;2023-03-31T01:18:05;9.77;;;5.65;;
47519;SDS011;33252;48.122;11.538;2023-03-31T01:29:05;9.25;;;5.90;;
47519;SDS011;33252;48.122;11.538;2023-03-31T01:39:44;14.82;;;7.10;;
47519;SDS011;33252;48.122;11.538;2023-03-31T01:42:34;10.23;;;5.75;;
47519;SDS011;33252;48.122;11.538;2023-03-31T01:56:02;7.40;;;6.13;;
47519;SDS011;33252;48.122;11.538;2023-03-31T01:58:42;10.40;;;5.97;;
47519;SDS011;33252;48.122;11.538;2023-03-31T02:01:31;10.52;;;6.05;;
47519;SDS011;33252;48.122;11.538;2023-03-31T02:04:16;9.30;;;5.57;;
47519;SDS011;33252;48.122;11.538;2023-03-31T02:06:50;8.77;;;6.30;;
47519;SDS011;33252;48.122;11.538;2023-03-31T02:09:22;12.55;;;5.93;;
47519;SDS011;33252;48.122;11.538;2023-03-31T02:11:53;8.30;;;5.77;;
47519;SDS011;33252;48.122;11.538;2023-03-31T02:14:22;10.45;;;5.88;;
47519;SDS011;33252;48.122;11.538;2023-03-31T02:16:53;11.02;;;5.43;;
47519;SDS011;33252;48.122;11.538;2023-03-31T02:19:31;14.05;;;6.32;;
47519;SDS011;33252;48.122;11.538;2023-03-31T02:22:02;9.10;;;5.45;;
47519;SDS011;33252;48.122;11.538;2023-03-31T02:24:30;9.98;;;5.78;;
47519;SDS011;33252;48.122;11.538;2023-03-31T02:29:55;8.60;;;5.68;;
47519;SDS011;33252;48.122;11.538;2023-03-31T02:32:23;9.18;;;4.93;;
47519;SDS011;33252;48.122;11.538;2023-03-31T02:34:56;10.13;;;5.55;;
47519;SDS011;33252;48.122;11.538;2023-03-31T02:37:23;8.82;;;5.63;;
47519;SDS011;33252;48.122;11.538;2023-03-31T02:39:50;10.38;;;6.47;;
47519;SDS011;33252;48.122;11.538;2023-03-31T02:42:18;8.35;;;5.20;;
47519;SDS011;33252;48.122;11.538;2023-03-31T02:44:44;6.78;;;4.82;;
47519;SDS011;33252;48.122;11.538;2023-03-31T02:47:11;11.35;;;6.13;;
47519;SDS011;33252;48.122;11.538;2023-03-31T02:49:39;8.82;;;5.07;;
47519;SDS011;33252;48.122;11.538;2023-03-31T02:55:00;7.43;;;4.80;;
47519;SDS011;33252;48.122;11.538;2023-03-31T02:57:42;7.05;;;5.60;;
47519;SDS011;33252;48.122;11.538;2023-03-31T03:01:05;7.97;;;4.80;;
47519;SDS011;33252;48.122;11.538;2023-03-31T03:09:03;11.43;;;5.88;;
47519;SDS011;33252;48.122;11.538;2023-03-31T03:11:51;9.40;;;5.80;;
47519;SDS011;33252;48.122;11.538;2023-03-31T03:19:50;11.50;;;6.47;;
47519;SDS011;33252;48.122;11.538;2023-03-31T03:22:20;8.32;;;6.28;;
47519;SDS011;33252;48.122;11.538;2023-03-31T03:24:46;7.72;;;5.78;;
47519;SDS011;33252;48.122;11.538;2023-03-31T03:27:11;11.45;;;6.35;;
47519;SDS011;33252;48.122;11.538;2023-03-31T03:29:37;9.90;;;6.65;;
47519;SDS011;33252;48.122;11.538;2023-03-31T03:32:03;10.40;;;7.18;;
47519;SDS011;33252;48.122;11.538;2023-03-31T03:34:28;11.40;;;6.13;;
47519;SDS011;33252;48.122;11.538;2023-03-31T03:36:54;12.27;;;6.05;;
47519;SDS011;33252;48.122;11.538;2023-03-31T03:39:20;14.13;;;6.13;;
47519;SDS011;33252;48.122;11.538;2023-03-31T03:41:46;10.63;;;5.53;;
47519;SDS011;33252;48.122;11.538;2023-03-31T03:44:12;13.65;;;5.75;;
47519;SDS011;33252;48.122;11.538;2023-03-31T03:46:38;9.18;;;6.03;;
47519;SDS011;33252;48.122;11.538;2023-03-31T03:49:04;6.88;;;5.13;;
47519;SDS011;33252;48.122;11.538;2023-03-31T03:51:30;7.95;;;5.78;;
47519;SDS011;33252;48.122;11.538;2023-03-31T03:53:56;7.90;;;5.55;;
47519;SDS011;33252;48.122;11.538;2023-03-31T03:56:21;10.93;;;5.45;;
47519;SDS011;33252;48.122;11.538;2023-03-31T03:58:47;13.60;;;6.00;;
47519;SDS011;33252;48.122;11.538;2023-03-31T04:01:13;9.38;;;5.78;;
47519;SDS011;33252;48.122;11.538;2023-03-31T04:03:38;9.07;;;5.75;;
47519;SDS011;33252;48.122;11.538;2023-03-31T04:06:04;10.00;;;5.57;;
47519;SDS011;33252;48.122;11.538;2023-03-31T04:08:30;8.40;;;5.82;;
47519;SDS011;33252;48.122;11.538;2023-03-31T04:10:56;14.48;;;6.30;;
47519;SDS011;33252;48.122;11.538;2023-03-31T04:13:21;10.77;;;6.43;;
47519;SDS011;33252;48.122;11.538;2023-03-31T04:15:47;13.38;;;6.15;;
47519;SDS011;33252;48.122;11.538;2023-03-31T04:18:15;10.82;;;6.32;;
47519;SDS011;33252;48.122;11.538;2023-03-31T04:20:53;11.20;;;7.15;;
47519;SDS011;33252;48.122;11.538;2023-03-31T04:23:28;10.80;;;6.32;;
47519;SDS011;33252;48.122;11.538;2023-03-31T04:25:58;11.75;;;6.93;;
47519;SDS011;33252;48.122;11.538;2023-03-31T04:28:23;10.63;;;6.63;;
47519;SDS011;33252;48.122;11.538;2023-03-31T04:30:51;11.32;;;7.38;;
47519;SDS011;33252;48.122;11.538;2023-03-31T04:33:19;9.82;;;6.70;;
47519;SDS011;33252;48.122;11.538;2023-03-31T04:35:45;13.80;;;6.97;;
47519;SDS011;33252;48.122;11.538;2023-03-31T04:38:15;12.73;;;6.97;;
47519;SDS011;33252;48.122;11.538;2023-03-31T04:40:43;14.95;;;7.07;;
47519;SDS011;33252;48.122;11.538;2023-03-31T04:43:10;9.70;;;6.57;;
47519;SDS011;33252;48.122;11.538;2023-03-31T04:45:35;12.05;;;6.75;;
47519;SDS011;33252;48.122;11.538;2023-03-31T04:48:01;10.25;;;6.65;;
47519;SDS011;33252;48.122;11.538;2023-03-31T04:50:27;13.27;;;7.70;;
47519;SDS011;33252;48.122;11.538;2023-03-31T04:52:52;9.93;;;7.30;;
47519;SDS011;33252;48.122;11.538;2023-03-31T04:55:18;13.48;;;7.13;;
47519;SDS011;33252;48.122;11.538;2023-03-31T04:57:43;9.57;;;6.78;;
47519;SDS011;33252;48.122;11.538;2023-03-31T05:00:09;10.43;;;6.22;;
47519;SDS011;33252;48.122;11.538;2023-03-31T05:02:35;10.85;;;7.63;;
47519;SDS011;33252;48.122;11.538;2023-03-31T05:05:01;12.60;;;7.70;;
47519;SDS011;33252;48.122;11.538;2023-03-31T05:07:27;9.85;;;7.40;;
47519;SDS011;33252;48.122;11.538;2023-03-31T05:09:53;18.88;;;8.23;;
47519;SDS011;33252;48.122;11.538;2023-03-31T05:12:19;9.73;;;7.35;;
47519;SDS011;33252;48.122;11.538;2023-03-31T05:14:44;17.10;;;7.45;;
47519;SDS011;33252;48.122;11.538;2023-03-31T05:17:10;16.27;;;7.70;;
47519;SDS011;33252;48.122;11.538;2023-03-31T05:19:35;14.07;;;7.30;;
47519;SDS011;33252;48.122;11.538;2023-03-31T05:22:01;9.63;;;6.63;;
47519;SDS011;33252;48.122;11.538;2023-03-31T05:24:27;10.45;;;6.55;;
47519;SDS011;33252;48.122;11.538;2023-03-31T05:26:54;13.57;;;7.78;;
47519;SDS011;33252;48.122;11.538;2023-03-31T05:29:21;11.57;;;6.70;;
47519;SDS011;33252;48.122;11.538;2023-03-31T05:31:47;10.45;;;7.18;;
47519;SDS011;33252;48.122;11.538;2023-03-31T05:34:13;10.93;;;6.70;;
47519;SDS011;33252;48.122;11.538;2023-03-31T05:36:40;10.30;;;8.10;;
47519;SDS011;33252;48.122;11.538;2023-03-31T05:39:07;10.75;;;6.72;;
47519;SDS011;33252;48.122;11.538;2023-03-31T05:41:33;11.25;;;7.10;;
47519;SDS011;33252;48.122;11.538;2023-03-31T05:43:59;14.05;;;7.22;;
47519;SDS011;33252;48.122;11.538;2023-03-31T05:46:26;12.10;;;6.93;;
47519;SDS011;33252;48.122;11.538;2023-03-31T05:48:52;9.07;;;7.13;;
47519;SDS011;33252;48.122;11.538;2023-03-31T05:51:17;11.80;;;7.57;;
47519;SDS011;33252;48.122;11.538;2023-03-31T05:53:43;11.48;;;7.45;;
47519;SDS011;33252;48.122;11.538;2023-03-31T05:56:09;14.23;;;7.50;;
47519;SDS011;33252;48.122;11.538;2023-03-31T05:58:36;10.98;;;6.30;;
47519;SDS011;33252;48.122;11.538;2023-03-31T06:03:32;9.30;;;6.47;;
47519;SDS011;33252;48.122;11.538;2023-03-31T06:05:59;9.07;;;6.50;;
47519;SDS011;33252;48.122;11.538;2023-03-31T06:08:32;10.77;;;7.10;;
47519;SDS011;33252;48.122;11.538;2023-03-31T06:10:58;13.18;;;7.45;;
47519;SDS011;33252;48.122;11.538;2023-03-31T06:13:25;11.50;;;7.75;;
47519;SDS011;33252;48.122;11.538;2023-03-31T06:15:54;12.60;;;7.40;;
47519;SDS011;33252;48.122;11.538;2023-03-31T06:18:21;10.90;;;6.57;;
47519;SDS011;33252;48.122;11.538;2023-03-31T06:20:47;12.00;;;7.40;;
47519;SDS011;33252;48.122;11.538;2023-03-31T06:23:12;10.13;;;7.10;;
47519;SDS011;33252;48.122;11.538;2023-03-31T06:25:38;12.98;;;7.35;;
47519;SDS011;33252;48.122;11.538;2023-03-31T06:28:04;13.60;;;7.80;;
47519;SDS011;33252;48.122;11.538;2023-03-31T06:30:32;13.85;;;7.65;;
47519;SDS011;33252;48.122;11.538;2023-03-31T06:32:58;10.15;;;7.00;;
47519;SDS011;33252;48.122;11.538;2023-03-31T06:35:24;14.00;;;8.05;;
47519;SDS011;33252;48.122;11.538;2023-03-31T06:37:50;11.45;;;7.28;;
47519;SDS011;33252;48.122;11.538;2023-03-31T06:40:15;11.48;;;7.50;;
47519;SDS011;33252;48.122;11.538;2023-03-31T06:42:41;12.45;;;8.10;;
47519;SDS011;33252;48.122;11.538;2023-03-31T06:45:07;12.95;;;7.40;;
47519;SDS011;33252;48.122;11.538;2023-03-31T06:47:32;12.30;;;7.82;;
47519;SDS011;33252;48.122;11.538;2023-03-31T06:49:58;10.38;;;6.75;;
47519;SDS011;33252;48.122;11.538;2023-03-31T06:52:24;8.73;;;5.95;;
47519;SDS011;33252;48.122;11.538;2023-03-31T06:54:49;10.57;;;6.85;;
47519;SDS011;33252;48.122;11.538;2023-03-31T06:57:15;8.52;;;5.93;;
47519;SDS011;33252;48.122;11.538;2023-03-31T06:59:41;11.82;;;5.68;;
47519;SDS011;33252;48.122;11.538;2023-03-31T07:02:08;13.60;;;6.45;;
47519;SDS011;33252;48.122;11.538;2023-03-31T07:04:34;11.38;;;6.13;;
47519;SDS011;33252;48.122;11.538;2023-03-31T07:07:00;11.45;;;6.47;;
47519;SDS011;33252;48.122;11.538;2023-03-31T07:09:26;11.65;;;7.05;;
47519;SDS011;33252;48.122;11.538;2023-03-31T07:11:51;8.60;;;6.68;;
47519;SDS011;33252;48.122;11.538;2023-03-31T07:14:17;9.25;;;5.38;;
47519;SDS011;33252;48.122;11.538;2023-03-31T07:16:42;11.48;;;5.60;;
47519;SDS011;33252;48.122;11.538;2023-03-31T07:19:08;7.10;;;6.40;;
47519;SDS011;33252;48.122;11.538;2023-03-31T07:21:35;9.32;;;6.40;;
47519;SDS011;33252;48.122;11.538;2023-03-31T07:24:01;7.90;;;5.88;;
47519;SDS011;33252;48.122;11.538;2023-03-31T07:26:28;12.13;;;6.30;;
47519;SDS011;33252;48.122;11.538;2023-03-31T07:28:54;13.43;;;6.85;;
47519;SDS011;33252;48.122;11.538;2023-03-31T07:31:21;11.00;;;6.45;;
47519;SDS011;33252;48.122;11.538;2023-03-31T07:33:47;11.30;;;7.68;;
47519;SDS011;33252;48.122;11.538;2023-03-31T07:36:13;12.68;;;6.93;;
47519;SDS011;33252;48.122;11.538;2023-03-31T07:38:40;9.45;;;6.63;;
47519;SDS011;33252;48.122;11.538;2023-03-31T07:41:10;16.55;;;7.38;;
47519;SDS011;33252;48.122;11.538;2023-03-31T07:43:37;12.13;;;7.85;;
47519;SDS011;33252;48.122;11.538;2023-03-31T07:46:03;11.63;;;7.00;;
47519;SDS011;33252;48.122;11.538;2023-03-31T07:48:31;11.75;;;7.10;;
47519;SDS011;33252;48.122;11.538;2023-03-31T07:50:57;11.10;;;7.07;;
47519;SDS011;33252;48.122;11.538;2023-03-31T07:53:23;12.88;;;8.18;;
47519;SDS011;33252;48.122;11.538;2023-03-31T07:55:49;10.60;;;7.40;;
47519;SDS011;33252;48.122;11.538;2023-03-31T07:58:15;11.57;;;7.45;;
47519;SDS011;33252;48.122;11.538;2023-03-31T08:00:40;12.07;;;7.47;;
47519;SDS011;33252;48.122;11.538;2023-03-31T08:03:06;10.85;;;7.55;;
47519;SDS011;33252;48.122;11.538;2023-03-31T08:05:32;16.13;;;9.00;;
47519;SDS011;33252;48.122;11.538;2023-03-31T08:07:57;15.75;;;7.95;;
47519;SDS011;33252;48.122;11.538;2023-03-31T08:10:24;17.45;;;8.32;;
47519;SDS011;33252;48.122;11.538;2023-03-31T08:12:51;12.57;;;7.40;;
47519;SDS011;33252;48.122;11.538;2023-03-31T08:15:17;11.48;;;7.45;;
47519;SDS011;33252;48.122;11.538;2023-03-31T08:17:43;14.05;;;7.03;;
47519;SDS011;33252;48.122;11.538;2023-03-31T08:20:09;10.65;;;7.63;;
47519;SDS011;33252;48.122;11.538;2023-03-31T08:22:36;13.98;;;7.07;;
47519;SDS011;33252;48.122;11.538;2023-03-31T08:25:03;9.52;;;6.60;;
47519;SDS011;33252;48.122;11.538;2023-03-31T08:27:36;10.93;;;7.43;;
47519;SDS011;33252;48.122;11.538;2023-03-31T08:30:04;14.95;;;7.75;;
47519;SDS011;33252;48.122;11.538;2023-03-31T08:32:31;12.85;;;7.60;;
47519;SDS011;33252;48.122;11.538;2023-03-31T08:34:58;7.78;;;6.40;;
47519;SDS011;33252;48.122;11.538;2023-03-31T08:37:24;13.27;;;7.22;;
47519;SDS011;33252;48.122;11.538;2023-03-31T08:39:52;9.68;;;6.60;;
47519;SDS011;33252;48.122;11.538;2023-03-31T08:42:20;12.45;;;6.43;;
47519;SDS011;33252;48.122;11.538;2023-03-31T08:45:16;9.57;;;6.85;;
47519;SDS011;33252;48.122;11.538;2023-03-31T08:47:46;10.15;;;7.40;;
47519;SDS011;33252;48.122;11.538;2023-03-31T08:50:24;6.97;;;4.65;;
47519;SDS011;33252;48.122;11.538;2023-03-31T08:58:23;6.55;;;4.00;;
47519;SDS011;33252;48.122;11.538;2023-03-31T09:00:54;7.90;;;3.90;;
47519;SDS011;33252;48.122;11.538;2023-03-31T09:03:30;4.18;;;3.05;;
47519;SDS011;33252;48.122;11.538;2023-03-31T09:06:16;5.13;;;3.90;;
47519;SDS011;33252;48.122;11.538;2023-03-31T09:08:48;7.00;;;3.40;;
47519;SDS011;33252;48.122;11.538;2023-03-31T09:14:14;5.22;;;3.58;;
47519;SDS011;33252;48.122;11.538;2023-03-31T09:22:13;9.02;;;4.63;;
47519;SDS011;33252;48.122;11.538;2023-03-31T09:24:48;7.13;;;3.60;;
47519;SDS011;33252;48.122;11.538;2023-03-31T09:27:15;6.95;;;3.95;;
47519;SDS011;33252;48.122;11.538;2023-03-31T09:29:42;7.28;;;3.53;;
47519;SDS011;33252;48.122;11.538;2023-03-31T09:32:32;5.75;;;3.83;;
47519;SDS011;33252;48.122;11.538;2023-03-31T09:35:12;9.27;;;4.05;;
47519;SDS011;33252;48.122;11.538;2023-03-31T09:37:38;6.95;;;3.55;;
47519;SDS011;33252;48.122;11.538;2023-03-31T09:40:04;4.80;;;3.35;;
47519;SDS011;33252;48.122;11.538;2023-03-31T09:42:35;5.88;;;3.08;;
47519;SDS011;33252;48.122;11.538;2023-03-31T09:45:02;5.90;;;2.78;;
47519;SDS011;33252;48.122;11.538;2023-03-31T09:50:03;5.57;;;3.00;;
47519;SDS011;33252;48.122;11.538;2023-03-31T09:55:00;5.60;;;2.28;;
47519;SDS011;33252;48.122;11.538;2023-03-31T10:02:49;4.95;;;2.78;;
47519;SDS011;33252;48.122;11.538;2023-03-31T10:08:13;7.55;;;2.75;;
47519;SDS011;33252;48.122;11.538;2023-03-31T10:10:52;3.00;;;2.15;;
47519;SDS011;33252;48.122;11.538;2023-03-31T10:13:19;4.40;;;2.40;;
47519;SDS011;33252;48.122;11.538;2023-03-31T10:15:53;7.78;;;2.70;;
47519;SDS011;33252;48.122;11.538;2023-03-31T10:18:39;4.05;;;3.25;;
47519;SDS011;33252;48.122;11.538;2023-03-31T10:21:09;6.65;;;3.00;;
47519;SDS011;33252;48.122;11.538;2023-03-31T10:23:45;5.70;;;2.88;;
47519;SDS011;33252;48.122;11.538;2023-03-31T10:26:13;6.68;;;2.70;;
47519;SDS011;33252;48.122;11.538;2023-03-31T10:28:42;5.93;;;2.92;;
47519;SDS011;33252;48.122;11.538;2023-03-31T10:31:08;4.78;;;3.33;;
47519;SDS011;33252;48.122;11.538;2023-03-31T10:33:37;6.03;;;2.60;;
47519;SDS011;33252;48.122;11.538;2023-03-31T10:36:14;3.03;;;2.28;;
47519;SDS011;33252;48.122;11.538;2023-03-31T10:38:43;4.60;;;2.45;;
47519;SDS011;33252;48.122;11.538;2023-03-31T10:41:11;4.72;;;2.95;;
47519;SDS011;33252;48.122;11.538;2023-03-31T10:43:47;4.18;;;2.60;;
47519;SDS011;33252;48.122;11.538;2023-03-31T10:46:17;6.28;;;3.05;;
47519;SDS011;33252;48.122;11.538;2023-03-31T10:48:43;5.20;;;2.83;;
47519;SDS011;33252;48.122;11.538;2023-03-31T10:54:12;6.75;;;3.00;;
47519;SDS011;33252;48.122;11.538;2023-03-31T11:21:12;7.25;;;2.97;;
47519;SDS011;33252;48.122;11.538;2023-03-31T11:24:09;3.83;;;2.83;;
47519;SDS011;33252;48.122;11.538;2023-03-31T11:29:59;3.53;;;1.35;;
47519;SDS011;33252;48.122;11.538;2023-03-31T11:43:36;3.25;;;1.20;;
47519;SDS011;33252;48.122;11.538;2023-03-31T11:46:21;2.70;;;0.88;;
47519;SDS011;33252;48.122;11.538;2023-03-31T11:49:50;3.65;;;0.95;;
47519;SDS011;33252;48.122;11.538;2023-03-31T11:57:29;3.28;;;1.20;;
47519;SDS011;33252;48.122;11.538;2023-03-31T12:00:02;2.90;;;0.85;;
47519;SDS011;33252;48.122;11.538;2023-03-31T12:05:18;4.65;;;1.50;;
47519;SDS011;33252;48.122;11.538;2023-03-31T12:08:06;2.47;;;1.05;;
47519;SDS011;33252;48.122;11.538;2023-03-31T12:10:59;5.50;;;0.93;;
47519;SDS011;33252;48.122;11.538;2023-03-31T12:13:49;2.25;;;1.42;;
47519;SDS011;33252;48.122;11.538;2023-03-31T12:16:37;2.75;;;1.05;;
47519;SDS011;33252;48.122;11.538;2023-03-31T12:19:16;2.50;;;1.27;;
47519;SDS011;33252;48.122;11.538;2023-03-31T12:22:02;4.22;;;1.08;;
47519;SDS011;33252;48.122;11.538;2023-03-31T12:24:31;2.25;;;1.10;;
47519;SDS011;33252;48.122;11.538;2023-03-31T12:27:04;3.83;;;1.20;;
47519;SDS011;33252;48.122;11.538;2023-03-31T12:32:33;0.98;;;0.82;;
47519;SDS011;33252;48.122;11.538;2023-03-31T12:35:06;6.15;;;1.30;;
47519;SDS011;33252;48.122;11.538;2023-03-31T12:52:06;3.83;;;1.30;;
47519;SDS011;33252;48.122;11.538;2023-03-31T12:57:34;4.55;;;2.35;;
47519;SDS011;33252;48.122;11.538;2023-03-31T13:09:37;2.97;;;0.60;;
47519;SDS011;33252;48.122;11.538;2023-03-31T13:11:57;2.10;;;0.90;;
47519;SDS011;33252;48.122;11.538;2023-03-31T13:14:30;6.47;;;0.50;;
47519;SDS011;33252;48.122;11.538;2023-03-31T13:17:12;2.72;;;0.50;;
47519;SDS011;33252;48.122;11.538;2023-03-31T13:19:46;4.03;;;0.43;;
47519;SDS011;33252;48.122;11.538;2023-03-31T13:22:29;4.25;;;0.70;;
47519;SDS011;33252;48.122;11.538;2023-03-31T13:27:50;4.55;;;0.50;;
47519;SDS011;33252;48.122;11.538;2023-03-31T13:33:06;0.50;;;0.20;;
47519;SDS011;33252;48.122;11.538;2023-03-31T13:35:54;1.73;;;0.50;;
47519;SDS011;33252;48.122;11.538;2023-03-31T13:44:16;0.98;;;0.32;;
47519;SDS011;33252;48.122;11.538;2023-03-31T13:52:27;5.50;;;0.85;;
47519;SDS011;33252;48.122;11.538;2023-03-31T14:07:17;0.85;;;0.50;;
47519;SDS011;33252;48.122;11.538;2023-03-31T14:09:47;2.95;;;0.60;;
47519;SDS011;33252;48.122;11.538;2023-03-31T14:12:18;5.47;;;1.13;;
47519;SDS011;33252;48.122;11.538;2023-03-31T14:14:55;3.08;;;0.55;;
47519;SDS011;33252;48.122;11.538;2023-03-31T14:17:26;3.20;;;0.88;;
47519;SDS011;33252;48.122;11.538;2023-03-31T14:22:46;1.55;;;0.63;;
47519;SDS011;33252;48.122;11.538;2023-03-31T14:31:25;1.05;;;0.60;;
47519;SDS011;33252;48.122;11.538;2023-03-31T14:34:15;2.88;;;0.70;;
47519;SDS011;33252;48.122;11.538;2023-03-31T14:37:08;1.20;;;0.65;;
47519;SDS011;33252;48.122;11.538;2023-03-31T14:39:40;3.35;;;0.80;;
47519;SDS011;33252;48.122;11.538;2023-03-31T14:42:18;4.60;;;0.85;;
47519;SDS011;33252;48.122;11.538;2023-03-31T14:44:56;0.65;;;0.20;;
47519;SDS011;33252;48.122;11.538;2023-03-31T14:47:26;3.60;;;0.40;;
47519;SDS011;33252;48.122;11.538;2023-03-31T14:50:04;2.17;;;0.20;;
47519;SDS011;33252;48.122;11.538;2023-03-31T14:52:37;1.60;;;0.20;;
47519;SDS011;33252;48.122;11.538;2023-03-31T14:55:03;0.95;;;0.30;;
47519;SDS011;33252;48.122;11.538;2023-03-31T14:57:33;1.20;;;0.63;;
47519;SDS011;33252;48.122;11.538;2023-03-31T15:00:03;0.75;;;0.17;;
47519;SDS011;33252;48.122;11.538;2023-03-31T15:02:35;1.35;;;0.32;;
47519;SDS011;33252;48.122;11.538;2023-03-31T15:05:04;2.33;;;0.40;;
47519;SDS011;33252;48.122;11.538;2023-03-31T15:07:39;1.27;;;0.32;;
47519;SDS011;33252;48.122;11.538;2023-03-31T15:10:05;0.45;;;0.20;;
47519;SDS011;33252;48.122;11.538;2023-03-31T15:12:32;3.00;;;0.43;;
47519;SDS011;33252;48.122;11.538;2023-03-31T15:15:02;1.80;;;0.60;;
47519;SDS011;33252;48.122;11.538;2023-03-31T15:17:31;1.38;;;0.50;;
47519;SDS011;33252;48.122;11.538;2023-03-31T15:20:25;1.15;;;0.40;;
47519;SDS011;33252;48.122;11.538;2023-03-31T15:22:55;0.63;;;0.47;;
47519;SDS011;33252;48.122;11.538;2023-03-31T15:25:23;1.75;;;0.40;;
47519;SDS011;33252;48.122;11.538;2023-03-31T15:27:59;1.15;;;0.40;;
47519;SDS011;33252;48.122;11.538;2023-03-31T15:30:31;3.00;;;0.30;;
47519;SDS011;33252;48.122;11.538;2023-03-31T15:32:57;1.38;;;0.20;;
47519;SDS011;33252;48.122;11.538;2023-03-31T15:35:34;0.88;;;0.30;;
47519;SDS011;33252;48.122;11.538;2023-03-31T15:38:04;1.20;;;0.60;;
47519;SDS011;33252;48.122;11.538;2023-03-31T15:40:31;2.58;;;0.50;;
47519;SDS011;33252;48.122;11.538;2023-03-31T15:45:45;1.60;;;0.50;;
47519;SDS011;33252;48.122;11.538;2023-03-31T15:50:40;1.15;;;0.40;;
47519;SDS011;33252;48.122;11.538;2023-03-31T15:53:18;2.80;;;0.65;;
47519;SDS011;33252;48.122;11.538;2023-03-31T15:55:57;3.03;;;0.65;;
47519;SDS011;33252;48.122;11.538;2023-03-31T15:58:44;1.70;;;0.63;;
47519;SDS011;33252;48.122;11.538;2023-03-31T16:01:11;2.58;;;0.50;;
47519;SDS011;33252;48.122;11.538;2023-03-31T16:03:39;2.55;;;0.50;;
47519;SDS011;33252;48.122;11.538;2023-03-31T16:06:09;3.20;;;0.60;;
47519;SDS011;33252;48.122;11.538;2023-03-31T16:08:56;2.42;;;0.80;;
47519;SDS011;33252;48.122;11.538;2023-03-31T16:11:50;3.63;;;0.63;;
47519;SDS011;33252;48.122;11.538;2023-03-31T16:14:20;2.08;;;0.60;;
47519;SDS011;33252;48.122;11.538;2023-03-31T16:16:53;2.05;;;0.73;;
47519;SDS011;33252;48.122;11.538;2023-03-31T16:19:24;1.13;;;0.40;;
47519;SDS011;33252;48.122;11.538;2023-03-31T16:21:54;1.88;;;1.02;;
47519;SDS011;33252;48.122;11.538;2023-03-31T16:24:27;3.67;;;0.80;;
47519;SDS011;33252;48.122;11.538;2023-03-31T16:26:57;2.22;;;0.57;;
47519;SDS011;33252;48.122;11.538;2023-03-31T16:29:24;3.40;;;1.45;;
47519;SDS011;33252;48.122;11.538;2023-03-31T16:31:50;3.88;;;0.60;;
47519;SDS011;33252;48.122;11.538;2023-03-31T16:34:32;3.55;;;0.85;;
47519;SDS011;33252;48.122;11.538;2023-03-31T16:36:58;2.63;;;0.93;;
47519;SDS011;33252;48.122;11.538;2023-03-31T16:39:23;4.53;;;1.20;;
47519;SDS011;33252;48.122;11.538;2023-03-31T16:41:49;2.22;;;1.02;;
47519;SDS011;33252;48.122;11.538;2023-03-31T16:44:15;3.70;;;1.13;;
47519;SDS011;33252;48.122;11.538;2023-03-31T16:46:40;2.50;;;0.85;;
47519;SDS011;33252;48.122;11.538;2023-03-31T16:49:06;3.97;;;0.98;;
47519;SDS011;33252;48.122;11.538;2023-03-31T16:51:32;2.95;;;0.93;;
47519;SDS011;33252;48.122;11.538;2023-03-31T16:53:57;2.53;;;0.93;;
47519;SDS011;33252;48.122;11.538;2023-03-31T16:56:23;1.75;;;0.90;;
47519;SDS011;33252;48.122;11.538;2023-03-31T16:58:48;2.35;;;0.68;;
47519;SDS011;33252;48.122;11.538;2023-03-31T17:01:14;1.05;;;0.20;;
47519;SDS011;33252;48.122;11.538;2023-03-31T17:03:40;0.65;;;0.10;;
47519;SDS011;33252;48.122;11.538;2023-03-31T17:06:08;0.30;;;0.10;;
47519;SDS011;33252;48.122;11.538;2023-03-31T17:08:35;0.28;;;0.10;;
47519;SDS011;33252;48.122;11.538;2023-03-31T17:11:06;1.27;;;0.22;;
47519;SDS011;33252;48.122;11.538;2023-03-31T17:13:34;2.70;;;0.20;;
47519;SDS011;33252;48.122;11.538;2023-03-31T17:16:00;0.47;;;0.10;;
47519;SDS011;33252;48.122;11.538;2023-03-31T17:18:26;0.28;;;0.20;;
47519;SDS011;33252;48.122;11.538;2023-03-31T17:20:52;1.98;;;0.20;;
47519;SDS011;33252;48.122;11.538;2023-03-31T17:23:18;1.17;;;0.20;;
47519;SDS011;33252;48.122;11.538;2023-03-31T17:25:49;0.52;;;0.20;;
47519;SDS011;33252;48.122;11.538;2023-03-31T17:28:16;2.17;;;0.40;;
47519;SDS011;33252;48.122;11.538;2023-03-31T17:30:43;1.80;;;0.38;;
47519;SDS011;33252;48.122;11.538;2023-03-31T17:33:12;0.95;;;0.30;;
47519;SDS011;33252;48.122;11.538;2023-03-31T17:35:38;0.70;;;0.30;;
47519;SDS011;33252;48.122;11.538;2023-03-31T17:38:03;0.40;;;0.20;;
47519;SDS011;33252;48.122;11.538;2023-03-31T17:40:29;1.33;;;0.30;;
47519;SDS011;33252;48.122;11.538;2023-03-31T17:42:59;2.08;;;0.30;;
47519;SDS011;33252;48.122;11.538;2023-03-31T17:45:26;1.13;;;0.35;;
47519;SDS011;33252;48.122;11.538;2023-03-31T17:47:53;2.13;;;0.38;;
47519;SDS011;33252;48.122;11.538;2023-03-31T17:50:19;0.55;;;0.20;;
47519;SDS011;33252;48.122;11.538;2023-03-31T17:52:45;0.50;;;0.28;;
47519;SDS011;33252;48.122;11.538;2023-03-31T17:55:11;2.70;;;0.47;;
47519;SDS011;33252;48.122;11.538;2023-03-31T17:57:38;1.67;;;0.40;;
47519;SDS011;33252;48.122;11.538;2023-03-31T18:00:05;1.75;;;0.20;;
47519;SDS011;33252;48.122;11.538;2023-03-31T18:02:36;0.85;;;0.10;;
47519;SDS011;33252;48.122;11.538;2023-03-31T18:05:03;2.60;;;0.32;;
47519;SDS011;33252;48.122;11.538;2023-03-31T18:07:30;0.45;;;0.30;;
47519;SDS011;33252;48.122;11.538;2023-03-31T18:09:57;2.75;;;0.40;;
47519;SDS011;33252;48.122;11.538;2023-03-31T18:12:23;0.80;;;0.30;;